createdAt,value
2023-04-24T14:55:02.692Z,94604.59
2023-04-24T14:57:31.381Z,94657.69
2023-04-24T14:59:59.685Z,94659.56
2023-04-24T15:02:28.490Z,94653.50
2023-04-24T15:04:57.490Z,94659.00
2023-04-24T15:07:25.905Z,94660.72
2023-04-24T15:09:54.243Z,94671.06
2023-04-24T15:12:25.800Z,94664.16
2023-04-24T15:14:54.209Z,94661.00
2023-04-24T15:17:22.648Z,94550.09
2023-04-24T15:20:05.832Z,94639.06
2023-04-24T15:22:34.588Z,94552.41
2023-04-24T15:25:09.387Z,94603.97
2023-04-24T15:27:48.000Z,94655.16
2023-04-24T15:30:16.592Z,94605.78
2023-04-24T15:32:45.156Z,94645.25
2023-04-24T15:35:13.561Z,94455.13
2023-04-24T15:37:42.115Z,94640.88
2023-04-24T15:40:12.777Z,94644.22
2023-04-24T15:42:41.178Z,94680.50
2023-04-24T15:45:12.770Z,94681.66
2023-04-24T15:47:41.372Z,94692.34
2023-04-24T15:50:14.483Z,94687.97
2023-04-24T15:52:43.681Z,94652.53
2023-04-24T15:55:13.107Z,94634.97
2023-04-24T15:57:41.758Z,94689.41
2023-04-24T16:00:12.915Z,94685.22
2023-04-24T16:02:41.772Z,94462.75
2023-04-24T16:05:11.452Z,94706.41
2023-04-24T16:07:40.754Z,94699.66
2023-04-24T16:10:09.939Z,94690.03
2023-04-24T16:12:38.814Z,94705.63
2023-04-24T16:15:09.014Z,94675.50
2023-04-24T16:17:40.330Z,94700.44
2023-04-24T16:20:09.839Z,94666.38
2023-04-24T16:22:38.115Z,94699.13
2023-04-24T16:25:07.295Z,94717.19
2023-04-24T16:27:36.115Z,94725.28
2023-04-24T16:30:05.277Z,94717.28
2023-04-24T16:32:33.759Z,94723.78
2023-04-24T16:35:03.579Z,94667.78
2023-04-24T16:37:32.363Z,94727.88
2023-04-24T16:40:00.852Z,94626.81
2023-04-24T16:42:29.342Z,94706.22
2023-04-24T16:44:57.837Z,94731.06
2023-04-24T16:47:26.256Z,94735.59
2023-04-24T16:49:54.934Z,94691.31
2023-04-24T16:52:24.908Z,94698.09
2023-04-24T16:54:53.188Z,94734.66
2023-04-24T16:57:21.740Z,94705.06
2023-04-24T16:59:50.073Z,94709.97
2023-04-24T17:02:18.425Z,94624.16
2023-04-24T17:04:58.950Z,94587.66
2023-04-24T17:07:29.306Z,94563.75
2023-04-24T17:09:58.509Z,94663.09
2023-04-24T17:12:26.887Z,94646.50
2023-04-24T17:14:55.986Z,94718.59
2023-04-24T17:17:25.651Z,94745.13
2023-04-24T17:19:54.617Z,94725.88
2023-04-24T17:22:23.426Z,94722.81
2023-04-24T17:24:53.939Z,94582.59
2023-04-24T17:27:22.734Z,94533.84
2023-04-24T17:29:51.756Z,94732.00
2023-04-24T17:32:20.174Z,94747.81
2023-04-24T17:34:49.385Z,94733.19
2023-04-24T17:37:20.061Z,94725.78
2023-04-24T17:39:49.182Z,94749.41
2023-04-24T17:42:19.581Z,94661.75
2023-04-24T17:44:48.746Z,94720.03
2023-04-24T17:47:17.245Z,94709.06
2023-04-24T17:49:46.190Z,94749.56
2023-04-24T17:52:15.315Z,94743.47
2023-04-24T17:54:44.224Z,94720.84
2023-04-24T17:57:12.907Z,94772.66
2023-04-24T17:59:42.660Z,94771.06
2023-04-24T18:02:11.262Z,94697.19
2023-04-24T18:04:43.190Z,94738.09
2023-04-24T18:07:14.231Z,94787.41
2023-04-24T18:09:42.932Z,94775.06
2023-04-24T18:12:11.591Z,94681.28
2023-04-24T18:14:39.941Z,94795.75
2023-04-24T18:17:10.024Z,94805.44
2023-04-24T18:19:38.671Z,94796.28
2023-04-24T18:22:07.179Z,94783.91
2023-04-24T18:24:56.156Z,94638.16
2023-04-24T18:27:25.391Z,94703.84
2023-04-24T18:29:54.012Z,94824.44
2023-04-24T18:32:23.858Z,94826.91
2023-04-24T18:34:52.522Z,94775.97
2023-04-24T18:37:20.906Z,94783.91
2023-04-24T18:39:50.840Z,94795.75
2023-04-24T18:42:19.812Z,94802.88
2023-04-24T18:44:48.427Z,94812.28
2023-04-24T18:47:17.110Z,94811.25
2023-04-24T18:49:47.118Z,94813.19
2023-04-24T18:52:15.457Z,94725.31
2023-04-24T18:54:45.363Z,94816.94
2023-04-24T18:57:16.199Z,94816.47
2023-04-24T18:59:46.121Z,94822.16
2023-04-24T19:02:15.488Z,94804.03
2023-04-24T19:04:45.333Z,94805.63
2023-04-24T19:07:21.905Z,94839.97
2023-04-24T19:09:51.576Z,94834.16
2023-04-24T19:12:22.784Z,94839.50
2023-04-24T19:14:56.397Z,94850.34
2023-04-24T19:17:25.952Z,94795.06
2023-04-24T19:19:55.990Z,94610.47
2023-04-24T19:22:27.223Z,94845.16
2023-04-24T19:24:59.006Z,94853.25
2023-04-24T19:27:29.606Z,94861.22
2023-04-24T19:29:59.122Z,94870.38
2023-04-24T19:32:28.773Z,94865.00
2023-04-24T19:34:58.348Z,94874.97
2023-04-24T19:37:30.756Z,94860.19
2023-04-24T19:40:00.564Z,94842.59
2023-04-24T19:42:42.463Z,94856.72
2023-04-24T19:45:14.894Z,94861.88
2023-04-24T19:47:45.309Z,94825.75
2023-04-24T19:50:15.596Z,94830.06
2023-04-24T19:52:46.675Z,94855.47
2023-04-24T19:55:16.576Z,94804.66
2023-04-24T19:57:46.317Z,94849.06
2023-04-24T20:00:17.031Z,94849.06
2023-04-24T20:02:46.231Z,94798.53
2023-04-24T20:05:15.311Z,94853.63
2023-04-24T20:07:47.203Z,94829.31
2023-04-24T20:10:15.601Z,94851.19
2023-04-24T20:12:46.045Z,94863.25
2023-04-24T20:15:15.611Z,94831.97
2023-04-24T20:17:45.600Z,94844.25
2023-04-24T20:20:15.615Z,94844.28
2023-04-24T20:22:46.186Z,94840.25
2023-04-24T20:25:15.084Z,94851.81
2023-04-24T20:27:43.922Z,94847.00
2023-04-24T20:30:14.157Z,94852.88
2023-04-24T20:32:43.488Z,94849.69
2023-04-24T20:35:12.419Z,94857.16
2023-04-24T20:37:41.494Z,94863.59
2023-04-24T20:40:14.237Z,94858.78
2023-04-24T20:42:42.815Z,94863.31
2023-04-24T20:45:12.528Z,94858.22
2023-04-24T20:47:40.916Z,94856.34
2023-04-24T20:50:10.197Z,94853.97
2023-04-24T20:52:38.577Z,94816.00
2023-04-24T20:55:08.526Z,94863.59
2023-04-24T20:57:56.627Z,94864.16
2023-04-24T21:00:27.189Z,94860.94
2023-04-24T21:02:55.866Z,94860.13
2023-04-24T21:05:24.276Z,94857.47
2023-04-24T21:07:56.067Z,94872.19
2023-04-24T21:10:25.437Z,94859.88
2023-04-24T21:12:55.501Z,94824.00
2023-04-24T21:15:23.890Z,94849.72
2023-04-24T21:17:53.231Z,94847.03
2023-04-24T21:20:21.754Z,94853.72
2023-04-24T21:22:50.208Z,94853.47
2023-04-24T21:25:18.512Z,94830.47
2023-04-24T21:27:47.061Z,94847.56
2023-04-24T21:30:16.898Z,94835.78
2023-04-24T21:32:45.299Z,94844.31
2023-04-24T21:35:13.630Z,94840.84
2023-04-24T21:37:41.966Z,94845.94
2023-04-24T21:40:12.000Z,94844.31
2023-04-24T21:42:41.091Z,94832.00
2023-04-24T21:45:10.715Z,94837.88
2023-04-24T21:47:40.842Z,94820.72
2023-04-24T21:50:10.525Z,94821.25
2023-04-24T21:52:39.168Z,94822.84
2023-04-24T21:55:08.185Z,94815.06
2023-04-24T21:57:36.661Z,94818.03
2023-04-24T22:00:07.778Z,94797.19
2023-04-24T22:02:36.554Z,94812.69
2023-04-24T22:05:07.568Z,94793.16
2023-04-24T22:07:36.691Z,94816.44
2023-04-24T22:10:06.693Z,94818.56
2023-04-24T22:12:35.216Z,94814.28
2023-04-24T22:15:04.201Z,94765.84
2023-04-24T22:17:33.876Z,94817.44
2023-04-24T22:20:02.665Z,94815.28
2023-04-24T22:22:32.517Z,94813.66
2023-04-24T22:25:00.900Z,94809.41
2023-04-24T22:27:29.526Z,94778.41
2023-04-24T22:29:58.143Z,94813.13
2023-04-24T22:32:26.511Z,94763.38
2023-04-24T22:34:54.889Z,94809.91
2023-04-24T22:37:23.273Z,94805.88
2023-04-24T22:39:53.004Z,94806.66
2023-04-24T22:42:21.480Z,94804.22
2023-04-24T22:44:49.826Z,94790.28
2023-04-24T22:47:19.891Z,94789.47
2023-04-24T22:49:48.311Z,94780.88
2023-04-24T22:52:17.252Z,94796.72
2023-04-24T22:54:45.575Z,94801.78
2023-04-24T22:57:15.336Z,94791.09
2023-04-24T22:59:43.918Z,94798.09
2023-04-24T23:02:12.514Z,94774.63
2023-04-24T23:04:41.080Z,94795.47
2023-04-24T23:07:10.205Z,94787.19
2023-04-24T23:09:38.548Z,94789.59
2023-04-24T23:12:07.617Z,94764.50
2023-04-24T23:14:37.378Z,94788.00
2023-04-24T23:17:06.075Z,94787.72
2023-04-24T23:19:34.636Z,94757.50
2023-04-24T23:22:03.277Z,94778.84
2023-04-24T23:24:31.706Z,94785.81
2023-04-24T23:27:00.013Z,94801.66
2023-04-24T23:29:28.358Z,94773.25
2023-04-24T23:31:58.087Z,94774.03
2023-04-24T23:34:26.635Z,94775.66
2023-04-24T23:36:55.080Z,94775.41
2023-04-24T23:39:23.690Z,94777.00
2023-04-24T23:41:53.757Z,94773.81
2023-04-24T23:44:22.120Z,94777.31
2023-04-24T23:46:50.577Z,94775.16
2023-04-24T23:49:20.377Z,94777.03
2023-04-24T23:51:48.731Z,94766.84
2023-04-24T23:54:17.145Z,94786.44
2023-04-24T23:56:45.913Z,94767.69
2023-04-24T23:59:14.266Z,94766.06
